Time;durP1;ratioP1;P1;durP2;ratioP2;P2;SDS_P1;SDS_P2;PMS_P1;PMS_P2;Temp;Humidity;BMP_temperature;BMP_pressure;BME280_temperature;BME280_humidity;BME280_pressure;Samples;Min_cycle;Max_cycle;Signal;HPM_P1;HPM_P2
2021/04/11 00:00:41;;;;;;;24.33;14.23;;;;;;;-1.87;77.99;93715.92;1846547;77;21112;-75
2021/04/11 00:03:13;;;;;;;31.00;14.63;;;;;;;-1.89;78.04;93720.22;1890203;74;21351;-76
2021/04/11 00:05:42;;;;;;;27.00;13.50;;;;;;;-1.87;78.19;93720.70;1886611;74;21135;-75
2021/04/11 00:08:12;;;;;;;24.80;12.30;;;;;;;-1.88;78.02;93724.48;1846532;77;21060;-75
2021/04/11 00:10:41;;;;;;;29.77;14.53;;;;;;;-1.97;77.85;93724.98;1834765;77;21124;-75
2021/04/11 00:13:14;;;;;;;26.37;13.23;;;;;;;-2.05;77.83;93724.41;1856287;77;21084;-76
2021/04/11 00:15:42;;;;;;;24.37;12.67;;;;;;;-2.09;78.11;93723.45;1864245;74;21330;-75
2021/04/11 00:18:09;;;;;;;18.10;8.33;;;;;;;-2.04;78.31;93727.30;1842968;77;21501;-76
2021/04/11 00:20:36;;;;;;;10.70;5.87;;;;;;;-2.00;78.48;93724.26;1851493;77;21111;-76
2021/04/11 00:23:05;;;;;;;14.00;8.27;;;;;;;-2.01;78.80;93729.36;1839421;77;21390;-76
2021/04/11 00:25:36;;;;;;;19.73;11.17;;;;;;;-2.08;79.08;93732.46;1911343;74;21123;-77
2021/04/11 00:28:03;;;;;;;11.30;6.60;;;;;;;-2.10;78.95;93743.20;1853535;75;22050;-76
2021/04/11 00:30:31;;;;;;;17.50;9.13;;;;;;;-2.09;78.90;93748.77;1860971;76;21115;-75
2021/04/11 00:33:00;;;;;;;23.73;11.60;;;;;;;-2.10;79.07;93747.20;1891517;74;21489;-75
2021/04/11 00:35:28;;;;;;;21.87;9.97;;;;;;;-2.12;79.10;93746.16;1851313;77;21059;-75
2021/04/11 00:37:57;;;;;;;9.13;6.03;;;;;;;-2.11;78.95;93744.28;1816900;78;21543;-75
2021/04/11 00:40:35;;;;;;;15.47;8.50;;;;;;;-2.11;79.09;93749.06;1866448;76;21171;-75
2021/04/11 00:43:11;;;;;;;13.83;8.00;;;;;;;-2.09;79.32;93752.22;1866678;75;21064;-75
2021/04/11 00:46:07;;;;;;;14.93;8.30;;;;;;;-2.10;79.17;93754.65;1826112;77;21123;-75
2021/04/11 00:48:35;;;;;;;;;;;;;;;-2.13;79.30;93750.48;1858273;77;21052;-74
2021/04/11 00:51:06;;;;;;;13.67;7.90;;;;;;;-2.29;79.59;93749.55;1853070;77;20258;-74
2021/04/11 00:53:33;;;;;;;13.23;7.37;;;;;;;-2.31;80.03;93752.27;1846615;77;21124;-74
2021/04/11 00:56:01;;;;;;;14.57;8.13;;;;;;;-2.32;80.00;93758.14;1846841;77;21112;-74
2021/04/11 00:58:28;;;;;;;10.77;7.33;;;;;;;-2.31;80.10;93751.72;1834712;76;21091;-74
2021/04/11 01:00:56;;;;;;;5.23;4.23;;;;;;;-2.29;80.20;93750.87;1857868;76;21447;-75
2021/04/11 01:03:28;;;;;;;9.40;5.40;;;;;;;-2.28;80.20;93745.78;1857627;77;21562;-74
2021/04/11 01:05:56;;;;;;;9.70;5.83;;;;;;;-2.30;80.26;93743.17;1853777;77;21352;-74
2021/04/11 01:08:27;;;;;;;6.13;4.03;;;;;;;-2.30;80.38;93745.84;1846434;77;21231;-74
2021/04/11 01:11:01;;;;;;;7.43;3.80;;;;;;;-2.31;80.48;93746.94;1846669;77;21041;-74
2021/04/11 01:13:32;;;;;;;6.58;3.72;;;;;;;-2.35;80.70;93749.98;1822114;78;21064;-74
2021/04/11 01:16:00;;;;;;;6.57;4.10;;;;;;;-2.38;80.88;93751.36;1849466;77;21166;-75
2021/04/11 01:18:30;;;;;;;5.13;3.97;;;;;;;-2.46;81.15;93750.23;1848609;76;21611;-75
2021/04/11 01:21:08;;;;;;;7.27;4.50;;;;;;;-2.54;81.43;93741.66;1843885;77;21120;-74
2021/04/11 01:23:53;;;;;;;12.67;5.83;;;;;;;-2.55;81.72;93744.63;1843865;77;21476;-74
2021/04/11 01:26:21;;;;;;;6.83;4.23;;;;;;;-2.49;81.74;93736.73;1845292;77;21108;-75
2021/04/11 01:28:49;;;;;;;8.53;4.20;;;;;;;-2.45;81.48;93744.35;1858540;77;21036;-75
2021/04/11 01:31:16;;;;;;;6.93;4.33;;;;;;;-2.50;81.48;93747.16;1824194;77;21798;-75
2021/04/11 01:33:50;;;;;;;10.83;5.50;;;;;;;-2.56;81.68;93741.16;1858239;76;21060;-75
2021/04/11 01:36:23;;;;;;;6.70;4.40;;;;;;;-2.59;81.78;93741.79;1871682;75;21056;-75
2021/04/11 01:38:51;;;;;;;7.33;4.17;;;;;;;-2.63;81.97;93736.84;1826917;77;21108;-74
2021/04/11 01:41:27;;;;;;;7.83;4.43;;;;;;;-2.66;82.12;93742.77;1851955;74;21029;-75
2021/04/11 01:43:55;;;;;;;6.00;4.13;;;;;;;-2.63;82.30;93740.83;1924248;74;21455;-75
2021/04/11 01:46:24;;;;;;;7.57;4.10;;;;;;;-2.62;82.29;93742.39;1851229;74;21122;-76
2021/04/11 01:48:53;;;;;;;8.40;5.00;;;;;;;-2.63;82.35;93741.35;1843861;77;21090;-74
2021/04/11 01:51:26;;;;;;;7.30;4.07;;;;;;;-2.58;82.33;93744.69;1843843;77;21588;-74
2021/04/11 01:53:53;;;;;;;9.27;4.87;;;;;;;-2.52;82.21;93739.48;1843865;77;21150;-74
2021/04/11 01:56:21;;;;;;;17.57;9.10;;;;;;;-2.46;82.06;93748.11;1844241;77;21318;-74
2021/04/11 01:58:51;;;;;;;12.93;6.53;;;;;;;-2.42;81.78;93746.41;1855296;77;21593;-74
2021/04/11 02:01:26;;;;;;;9.63;5.37;;;;;;;-2.39;81.64;93751.13;1845517;77;21559;-74
2021/04/11 02:03:57;;;;;;;13.40;8.33;;;;;;;-2.42;81.43;93750.41;1843815;77;21048;-74
2021/04/11 02:06:25;;;;;;;19.43;9.83;;;;;;;-2.48;81.46;93748.98;1843789;77;21065;-73
2021/04/11 02:08:58;;;;;;;17.47;9.90;;;;;;;-2.49;81.61;93748.17;1821076;77;22448;-74
2021/04/11 02:11:27;;;;;;;24.77;13.27;;;;;;;-2.48;81.41;93746.32;1820165;77;21171;-75
2021/04/11 02:13:57;;;;;;;21.30;12.77;;;;;;;-2.51;81.10;93748.26;1843655;77;21041;-73
2021/04/11 02:16:28;;;;;;;25.97;14.00;;;;;;;-2.56;81.03;93743.04;1878454;74;21029;-74
2021/04/11 02:19:02;;;;;;;17.03;8.93;;;;;;;-2.58;81.19;93741.24;1874207;75;21070;-74
2021/04/11 02:21:30;;;;;;;10.18;5.58;;;;;;;-2.62;81.18;93742.39;1853072;77;21197;-76
2021/04/11 02:24:00;;;;;;;32.63;12.43;;;;;;;-2.69;81.33;93739.38;1853065;77;21134;-76
2021/04/11 02:26:28;;;;;;;21.73;11.13;;;;;;;-2.69;81.43;93740.70;1830333;75;21037;-74
2021/04/11 02:29:04;;;;;;;11.57;7.10;;;;;;;-2.71;81.45;93726.38;1881891;76;21036;-75
2021/04/11 02:31:33;;;;;;;9.37;4.90;;;;;;;-2.73;81.48;93725.88;1833127;78;21132;-76
2021/04/11 02:34:14;;;;;;;9.80;5.23;;;;;;;-2.76;81.77;93721.16;1846617;76;21546;-76
2021/04/11 02:36:45;;;;;;;12.00;6.53;;;;;;;-2.74;82.03;93722.20;1876662;75;21122;-76
2021/04/11 02:39:18;;;;;;;9.60;5.37;;;;;;;-2.70;82.06;93721.29;1829657;77;21560;-76
2021/04/11 02:41:46;;;;;;;17.37;8.63;;;;;;;-2.66;81.77;93725.45;1854482;76;21031;-76
2021/04/11 02:44:15;;;;;;;23.37;10.37;;;;;;;-2.69;81.50;93727.39;1897900;75;21120;-76
2021/04/11 02:46:44;;;;;;;22.90;10.53;;;;;;;-2.74;81.61;93720.33;1861362;75;21069;-76
2021/04/11 02:49:16;;;;;;;25.27;13.27;;;;;;;-2.78;81.27;93720.70;1856565;77;21566;-76
2021/04/11 02:51:43;;;;;;;27.53;13.30;;;;;;;-2.87;81.26;93722.50;1841043;77;21124;-75
2021/04/11 02:54:15;;;;;;;30.73;14.57;;;;;;;-2.89;81.33;93715.92;1838507;76;21087;-76
2021/04/11 02:56:46;;;;;;;21.47;11.33;;;;;;;-2.90;81.31;93715.11;1846640;76;21033;-76
2021/04/11 02:59:16;;;;;;;22.47;11.67;;;;;;;-2.91;81.21;93713.55;1858219;76;21706;-76
2021/04/11 03:01:47;;;;;;;16.13;7.67;;;;;;;-2.94;81.23;93721.59;1892875;75;21483;-76
2021/04/11 03:04:18;;;;;;;18.13;8.33;;;;;;;-2.96;81.60;93725.11;1875495;75;21054;-76
2021/04/11 03:07:07;;;;;;;22.97;10.07;;;;;;;-2.97;81.74;93725.39;1862518;77;21574;-75
2021/04/11 03:09:40;;;;;;;24.30;10.47;;;;;;;-3.03;81.73;93723.41;1813321;78;21032;-79
2021/04/11 03:12:10;;;;;;;21.40;11.23;;;;;;;-3.11;81.54;93726.02;1914394;74;21640;-77
2021/04/11 03:14:41;;;;;;;18.57;11.10;;;;;;;-3.23;81.48;93719.36;1872106;75;21100;-76
2021/04/11 03:17:20;;;;;;;15.47;8.67;;;;;;;-3.30;81.67;93717.66;1853122;74;21079;-76
2021/04/11 03:19:59;;;;;;;21.10;9.40;;;;;;;-3.32;81.83;93725.14;1879385;74;21097;-74
2021/04/11 03:22:27;;;;;;;16.30;8.67;;;;;;;-3.38;82.21;93729.02;1849449;77;21132;-75
2021/04/11 03:24:55;;;;;;;19.57;8.77;;;;;;;-3.39;82.98;93732.73;1834312;77;22321;-78
2021/04/11 03:27:46;;;;;;;15.00;8.13;;;;;;;-3.41;83.33;93729.61;1837127;78;21064;-75
2021/04/11 03:30:39;;;;;;;15.90;8.13;;;;;;;-3.37;83.50;93731.13;1840499;78;21480;-77
2021/04/11 03:33:11;;;;;;;20.80;10.40;;;;;;;-3.35;83.39;93731.05;1853377;76;21650;-77
2021/04/11 03:35:40;;;;;;;20.33;9.20;;;;;;;-3.37;83.13;93732.45;1852512;77;21543;-76
2021/04/11 03:38:08;;;;;;;22.63;11.67;;;;;;;-3.43;82.99;93736.54;1876235;74;21323;-77
2021/04/11 03:40:38;;;;;;;17.83;8.83;;;;;;;-3.47;82.81;93734.23;1807179;78;21149;-72
2021/04/11 03:43:13;;;;;;;19.37;10.50;;;;;;;-3.48;83.00;93734.55;1854025;74;21045;-75
2021/04/11 03:45:41;;;;;;;14.33;6.80;;;;;;;-3.49;82.96;93740.41;1916713;74;21130;-74
2021/04/11 03:48:18;;;;;;;11.83;6.37;;;;;;;-3.51;83.12;93740.45;1849115;74;21105;-77
2021/04/11 03:50:57;;;;;;;17.30;8.03;;;;;;;-3.48;83.34;93748.63;1846302;77;21877;-75
2021/04/11 03:53:36;;;;;;;12.77;6.83;;;;;;;-3.45;83.48;93744.05;1835934;77;21064;-73
2021/04/11 03:56:09;;;;;;;15.70;7.60;;;;;;;-3.38;83.36;93746.84;1805179;78;21612;-77
2021/04/11 03:58:43;;;;;;;8.57;5.67;;;;;;;-3.37;83.35;93755.84;1846011;77;21117;-77
2021/04/11 04:01:18;;;;;;;25.47;15.07;;;;;;;-3.34;83.37;93759.23;1837465;76;21128;-78
2021/04/11 04:03:47;;;;;;;16.73;8.80;;;;;;;-3.29;83.41;93755.67;1834436;78;21357;-78
2021/04/11 04:06:30;;;;;;;13.40;8.00;;;;;;;-3.23;83.46;93754.48;1835058;77;21610;-73
2021/04/11 04:08:59;;;;;;;14.63;7.37;;;;;;;-3.19;83.11;93751.47;1847694;77;21104;-74
2021/04/11 04:12:13;;;;;;;11.63;7.17;;;;;;;-3.21;82.90;93751.75;1834232;78;21042;-77
2021/04/11 04:15:11;;;;;;;13.93;7.17;;;;;;;-3.22;82.99;93753.39;1842875;77;21113;-75
2021/04/11 04:18:11;;;;;;;10.00;5.80;;;;;;;-3.25;83.16;93760.63;1846267;77;21355;-75
2021/04/11 04:21:04;;;;;;;11.87;5.90;;;;;;;-3.30;83.62;93757.55;1866624;74;21099;-73
2021/04/11 04:24:10;;;;;;;12.70;6.30;;;;;;;-3.30;83.95;93756.22;1873839;74;21092;-75
2021/04/11 04:26:54;;;;;;;8.53;5.60;;;;;;;-3.23;84.19;93759.81;1846273;77;21104;-77
2021/04/11 04:29:55;;;;;;;11.17;5.93;;;;;;;-3.10;84.34;93764.28;1846181;75;21033;-76
2021/04/11 04:32:53;;;;;;;7.17;4.70;;;;;;;-3.02;83.77;93764.11;1833880;77;21361;-76
2021/04/11 04:35:54;;;;;;;15.77;8.43;;;;;;;-2.98;83.55;93756.55;1845984;77;21135;-74
2021/04/11 04:38:35;;;;;;;7.00;4.50;;;;;;;-2.94;83.45;93755.39;1846434;77;21085;-76
2021/04/11 04:41:12;;;;;;;9.00;4.10;;;;;;;-2.45;84.98;93746.47;1808031;78;21037;-74
2021/04/11 04:43:52;;;;;;;6.70;3.97;;;;;;;-1.54;84.99;93753.11;1791418;78;21480;-78
2021/04/11 04:46:36;;;;;;;7.40;5.00;;;;;;;-0.55;83.98;93747.94;1837320;76;22232;-73
2021/04/11 04:49:12;;;;;;;6.60;4.05;;;;;;;0.37;80.51;93753.38;1825018;77;21066;-74
2021/04/11 04:51:52;;;;;;;6.17;4.00;;;;;;;1.14;76.47;93752.10;1834993;77;21048;-74
2021/04/11 04:54:34;;;;;;;10.18;5.37;;;;;;;1.71;73.30;93753.33;1848274;75;21119;-77
2021/04/11 04:57:22;;;;;;;6.50;4.20;;;;;;;1.87;69.95;93752.14;1876143;74;21126;-75
2021/04/11 05:00:11;;;;;;;26.42;15.65;;;;;;;1.74;69.48;93751.90;1875422;74;21192;-74
2021/04/11 05:02:48;;;;;;;20.52;12.45;;;;;;;1.49;69.01;93754.48;1845389;77;21141;-75
2021/04/11 05:05:17;;;;;;;18.85;9.83;;;;;;;1.21;69.62;93755.05;1841652;77;21076;-76
2021/04/11 05:07:53;;;;;;;19.20;10.60;;;;;;;1.07;69.98;93757.75;1883010;75;21505;-75
2021/04/11 05:10:44;;;;;;;24.18;12.78;;;;;;;1.01;69.88;93757.71;1846835;75;21128;-75
2021/04/11 05:13:20;;;;;;;28.02;15.38;;;;;;;1.12;69.95;93762.34;1833861;77;21426;-76
2021/04/11 05:16:16;;;;;;;32.80;16.52;;;;;;;1.57;68.05;93766.23;1857943;77;21068;-78
2021/04/11 05:18:57;;;;;;;29.02;14.65;;;;;;;1.93;66.39;93764.23;1846768;75;21128;-76
2021/04/11 05:21:31;;;;;;;27.75;16.07;;;;;;;2.30;64.92;93773.13;1846424;76;21175;-79
2021/04/11 05:24:13;;;;;;;29.60;17.55;;;;;;;2.68;64.73;93773.37;1834559;78;21543;-74
2021/04/11 05:26:52;;;;;;;32.03;17.60;;;;;;;3.21;64.27;93781.48;1846236;77;21799;-75
2021/04/11 05:29:50;;;;;;;22.98;12.65;;;;;;;3.90;63.04;93777.07;1846434;77;21563;-76
2021/04/11 05:32:18;;;;;;;13.98;9.15;;;;;;;4.62;60.96;93775.61;1871270;74;21096;-81
2021/04/11 05:34:45;;;;;;;15.68;9.25;;;;;;;5.06;58.32;93774.13;1907717;74;21075;-78
2021/04/11 05:37:26;;;;;;;15.90;9.15;;;;;;;5.31;56.90;93773.34;1818938;77;21048;-79
2021/04/11 05:40:09;;;;;;;15.95;9.58;;;;;;;5.43;55.92;93775.13;1848421;77;21401;-80
2021/04/11 05:43:05;;;;;;;13.78;8.78;;;;;;;5.54;57.23;93768.61;1845238;77;21163;-77
2021/04/11 05:45:50;;;;;;;11.53;6.53;;;;;;;5.68;56.26;93764.86;1904526;74;21123;-79
2021/04/11 05:48:49;;;;;;;12.75;9.03;;;;;;;5.63;53.55;93758.95;1912103;74;21116;-77
2021/04/11 05:51:26;;;;;;;13.18;7.53;;;;;;;5.45;54.72;93768.02;1864648;75;21069;-77
2021/04/11 05:54:03;;;;;;;16.45;8.58;;;;;;;5.54;54.62;93764.56;1846408;77;21415;-77
2021/04/11 05:57:00;;;;;;;10.90;7.20;;;;;;;5.74;55.18;93758.59;1834307;77;21140;-77
2021/04/11 05:59:38;;;;;;;10.95;7.20;;;;;;;5.93;55.31;93761.30;1836512;77;21160;-80
2021/04/11 06:02:06;;;;;;;10.28;6.80;;;;;;;6.21;56.34;93746.78;1845790;77;21135;-75
2021/04/11 06:04:37;;;;;;;9.50;5.50;;;;;;;6.48;54.83;93753.03;1834571;78;21049;-76
2021/04/11 06:07:29;;;;;;;9.28;5.12;;;;;;;6.63;53.76;93749.98;1852586;77;21423;-78
2021/04/11 06:10:14;;;;;;;7.15;4.67;;;;;;;6.80;53.53;93752.17;1857323;77;21495;-81
2021/04/11 06:12:53;;;;;;;7.40;4.87;;;;;;;6.94;50.81;93739.45;1845397;74;21070;-77
2021/04/11 06:15:30;;;;;;;6.17;4.50;;;;;;;6.90;50.77;93747.52;1832019;78;21118;-77
2021/04/11 06:17:59;;;;;;;6.95;4.53;;;;;;;6.92;51.73;93747.14;1831940;77;21597;-76
2021/04/11 06:20:27;;;;;;;5.78;4.40;;;;;;;6.90;51.87;93744.03;1831965;77;21493;-79
2021/04/11 06:23:35;;;;;;;6.97;4.25;;;;;;;6.88;53.31;93749.01;1837500;74;21043;-80
2021/04/11 06:26:29;;;;;;;6.78;5.25;;;;;;;6.89;53.92;93745.19;1906803;74;21012;-78
2021/04/11 06:29:13;;;;;;;10.55;5.45;;;;;;;7.09;52.12;93731.75;1831001;77;21046;-77
2021/04/11 06:31:48;;;;;;;10.93;5.10;;;;;;;7.33;48.62;93736.52;1832170;77;21098;-83
2021/04/11 06:34:21;;;;;;;7.25;5.15;;;;;;;7.59;48.56;93737.81;1833771;77;21420;-78
2021/04/11 06:36:52;;;;;;;7.60;5.33;;;;;;;7.95;47.68;93732.83;1832157;78;21572;-77
2021/04/11 06:39:27;;;;;;;7.62;5.12;;;;;;;8.33;46.80;93737.09;1831974;78;21118;-77
2021/04/11 06:42:07;;;;;;;11.63;5.58;;;;;;;8.71;45.95;93728.34;1822580;78;21057;-79
2021/04/11 06:44:52;;;;;;;7.45;5.47;;;;;;;8.86;45.45;93719.16;1831917;78;21126;-81
2021/04/11 06:48:07;;;;;;;9.80;5.70;;;;;;;8.90;44.86;93715.13;1831939;78;21514;-78
2021/04/11 06:51:17;;;;;;;6.00;4.60;;;;;;;8.98;44.39;93716.14;1831568;78;21110;-82
2021/04/11 06:54:10;;;;;;;11.28;5.45;;;;;;;8.86;42.95;93711.61;1831897;78;21082;-80
2021/04/11 06:57:13;;;;;;;7.55;5.03;;;;;;;8.89;43.28;93714.93;1831919;78;21172;-81
2021/04/11 07:00:17;;;;;;;6.35;5.50;;;;;;;9.15;43.25;93709.88;1856995;74;21087;-77
2021/04/11 07:03:07;;;;;;;11.65;6.30;;;;;;;9.31;42.64;93704.91;1889863;74;21343;-78
2021/04/11 07:06:04;;;;;;;8.20;5.20;;;;;;;9.05;43.12;93706.50;1853152;74;21104;-78
2021/04/11 07:09:01;;;;;;;8.73;6.42;;;;;;;8.69;43.08;93708.98;1899151;74;21114;-81
2021/04/11 07:12:09;;;;;;;10.40;6.08;;;;;;;8.63;44.36;93709.12;1831773;78;21086;-83
2021/04/11 07:15:01;;;;;;;9.55;5.08;;;;;;;8.83;44.20;93704.22;1831893;78;21130;-78
2021/04/11 07:17:44;;;;;;;9.85;5.03;;;;;;;9.05;41.92;93701.86;1831934;77;21684;-81
2021/04/11 07:20:38;;;;;;;8.68;5.70;;;;;;;9.03;41.80;93699.31;1835547;74;21066;-79
2021/04/11 07:23:06;;;;;;;8.15;5.17;;;;;;;9.03;41.99;93696.05;1916693;74;21052;-80
2021/04/11 07:26:07;;;;;;;8.60;5.47;;;;;;;8.93;41.99;93697.52;1833531;78;21044;-83
2021/04/11 07:29:02;;;;;;;7.97;5.25;;;;;;;8.85;42.42;93689.72;1833765;77;21037;-77
2021/04/11 07:32:06;;;;;;;6.83;4.87;;;;;;;8.78;43.40;93691.02;1811631;78;21342;-79
2021/04/11 07:35:11;;;;;;;10.20;5.60;;;;;;;8.84;43.04;93691.66;1866847;76;21196;-78
2021/04/11 07:37:55;;;;;;;9.65;5.53;;;;;;;9.01;42.53;93687.49;1919781;74;21040;-82
2021/04/11 07:40:54;;;;;;;7.62;4.75;;;;;;;9.23;42.40;93687.82;1840157;74;21055;-83
2021/04/11 07:43:55;;;;;;;7.60;4.67;;;;;;;9.41;41.24;93684.42;1831855;78;21102;-81
2021/04/11 07:46:37;;;;;;;10.45;4.28;;;;;;;9.70;40.83;93693.45;1831775;78;21217;-80
2021/04/11 07:49:16;;;;;;;5.12;4.47;;;;;;;9.98;41.21;93682.69;1831665;77;21094;-78
2021/04/11 07:52:20;;;;;;;9.45;5.17;;;;;;;10.38;41.33;93681.41;1883658;74;21056;-76
2021/04/11 07:55:23;;;;;;;6.55;4.42;;;;;;;10.87;39.14;93683.37;1916791;74;21569;-81
2021/04/11 07:58:15;;;;;;;7.03;5.25;;;;;;;11.35;38.64;93679.39;1862905;74;21102;-77
2021/04/11 08:01:21;;;;;;;7.30;4.42;;;;;;;11.80;38.43;93674.17;1831388;78;21370;-78
2021/04/11 08:04:34;;;;;;;8.20;4.95;;;;;;;12.09;37.18;93670.16;1831598;78;21165;-79
2021/04/11 08:07:44;;;;;;;7.62;4.97;;;;;;;12.27;36.22;93674.73;1831892;78;21129;-76
2021/04/11 08:10:43;;;;;;;9.50;5.37;;;;;;;12.41;37.16;93667.80;1831535;78;21497;-77
2021/04/11 08:13:35;;;;;;;7.65;4.58;;;;;;;12.75;35.83;93672.05;1894334;74;21159;-76
2021/04/11 08:16:25;;;;;;;7.92;5.20;;;;;;;13.01;35.89;93667.13;1859076;74;21070;-80
2021/04/11 08:19:31;;;;;;;6.42;4.62;;;;;;;13.27;35.95;93667.11;1882672;74;21063;-80
2021/04/11 08:22:46;;;;;;;7.60;4.73;;;;;;;13.68;36.08;93667.05;1864131;74;21568;-80
2021/04/11 08:25:57;;;;;;;6.75;5.03;;;;;;;14.10;35.66;93662.22;1832212;78;21192;-79
2021/04/11 08:28:39;;;;;;;7.78;4.70;;;;;;;14.44;34.71;93659.98;1897777;74;21088;-78
2021/04/11 08:31:46;;;;;;;7.20;4.83;;;;;;;14.54;34.56;93654.39;1917064;74;21578;-76
2021/04/11 08:34:34;;;;;;;8.00;4.65;;;;;;;14.69;34.33;93658.28;1857805;74;21051;-78
2021/04/11 08:37:41;;;;;;;5.42;4.28;;;;;;;14.87;33.76;93651.92;1832064;78;21497;-76
2021/04/11 08:40:40;;;;;;;5.75;3.60;;;;;;;15.20;32.76;93654.90;1831913;78;21122;-76
2021/04/11 08:43:34;;;;;;;5.28;4.05;;;;;;;15.58;31.42;93649.11;1831857;78;21588;-78
2021/04/11 08:46:35;;;;;;;6.05;3.67;;;;;;;15.85;30.36;93651.13;1831375;78;22750;-76
2021/04/11 08:49:26;;;;;;;7.85;4.03;;;;;;;16.17;30.18;93644.98;1830789;77;21082;-78
2021/04/11 08:52:05;;;;;;;5.25;4.30;;;;;;;16.54;30.02;93642.20;1831920;78;21062;-78
2021/04/11 08:54:46;;;;;;;4.83;3.92;;;;;;;16.71;28.65;93636.30;1831852;78;21035;-81
2021/04/11 08:57:39;;;;;;;8.35;4.08;;;;;;;16.86;29.56;93636.75;1856419;77;22632;-75
2021/04/11 09:00:21;;;;;;;6.60;4.92;;;;;;;16.96;29.44;93637.67;1794551;78;21191;-75
2021/04/11 09:03:11;;;;;;;4.95;3.50;;;;;;;17.09;28.50;93638.53;1792669;79;21196;-75
2021/04/11 09:06:05;;;;;;;5.25;4.00;;;;;;;17.23;28.52;93636.80;1783863;79;20969;-75
2021/04/11 09:08:40;;;;;;;5.08;3.33;;;;;;;17.32;27.32;93638.92;1831837;77;21014;-75
2021/04/11 09:11:31;;;;;;;3.98;3.33;;;;;;;17.28;26.02;93634.13;1855740;77;21042;-75
2021/04/11 09:14:15;;;;;;;3.92;3.00;;;;;;;17.12;26.49;93634.93;1856160;77;21022;-75
2021/04/11 09:17:09;;;;;;;4.05;3.50;;;;;;;17.03;27.55;93623.77;1857577;77;21316;-75
2021/04/11 09:20:04;;;;;;;4.43;3.73;;;;;;;17.06;27.79;93629.78;1855187;77;21575;-75
2021/04/11 09:22:48;;;;;;;3.87;3.42;;;;;;;17.07;28.14;93619.56;1859181;77;21086;-76
2021/04/11 09:25:25;;;;;;;4.20;3.75;;;;;;;17.10;27.45;93615.34;1858335;76;21128;-76
2021/04/11 09:28:01;;;;;;;4.80;3.17;;;;;;;17.06;27.05;93620.16;1874878;76;21048;-75
2021/04/11 09:31:05;;;;;;;4.25;3.17;;;;;;;17.02;27.10;93613.99;1822891;78;22232;-75
2021/04/11 09:34:03;;;;;;;5.40;3.40;;;;;;;16.98;27.30;93609.95;1769710;80;21209;-76
2021/04/11 09:37:04;;;;;;;5.42;3.60;;;;;;;16.90;27.54;93615.47;1779610;80;21081;-76
2021/04/11 09:40:03;;;;;;;6.33;3.40;;;;;;;16.80;27.90;93609.62;1776578;80;21084;-77
2021/04/11 09:42:52;;;;;;;4.45;3.02;;;;;;;16.70;28.19;93616.91;1804766;79;21199;-76
2021/04/11 09:45:37;;;;;;;3.12;2.80;;;;;;;16.62;28.46;93608.66;1801066;78;22238;-75
2021/04/11 09:48:36;;;;;;;7.83;2.87;;;;;;;16.55;28.58;93612.97;1782430;79;21575;-76
2021/04/11 09:51:24;;;;;;;5.10;3.45;;;;;;;16.46;27.14;93608.05;1719243;80;21226;-76
2021/04/11 09:54:15;;;;;;;4.50;3.17;;;;;;;16.35;28.12;93603.41;1753155;80;21060;-76
2021/04/11 09:57:14;;;;;;;4.83;2.70;;;;;;;16.29;28.18;93603.77;1798640;79;21121;-77
2021/04/11 10:00:13;;;;;;;7.25;3.40;;;;;;;16.25;28.31;93603.08;1834698;76;21165;-76
2021/04/11 10:03:10;;;;;;;5.87;3.62;;;;;;;16.18;28.80;93599.88;1838666;76;21095;-76
2021/04/11 10:06:10;;;;;;;4.47;2.83;;;;;;;16.17;28.22;93598.92;1854255;76;21103;-76
2021/04/11 10:08:55;;;;;;;3.33;2.98;;;;;;;16.12;28.42;93598.84;1879153;75;21176;-75
2021/04/11 10:12:10;;;;;;;5.05;3.70;;;;;;;16.10;28.16;93596.34;1842046;77;21059;-77
2021/04/11 10:15:01;;;;;;;3.00;2.47;;;;;;;16.06;29.37;93594.27;1864222;75;22378;-75
2021/04/11 10:17:50;;;;;;;7.55;4.47;;;;;;;16.08;29.89;93592.66;1874992;75;21076;-76
2021/04/11 10:20:41;;;;;;;5.47;3.22;;;;;;;16.16;29.58;93585.81;1850590;77;21130;-76
2021/04/11 10:23:53;;;;;;;6.42;4.35;;;;;;;16.20;29.92;93582.98;1841902;77;21036;-76
2021/04/11 10:26:43;;;;;;;2.98;2.52;;;;;;;16.22;29.58;93581.97;1868692;75;21131;-76
2021/04/11 10:29:17;;;;;;;5.35;3.77;;;;;;;16.22;29.39;93577.86;1855614;76;21652;-76
2021/04/11 10:32:08;;;;;;;5.35;3.40;;;;;;;16.24;29.51;93578.19;1852171;77;21682;-76
2021/04/11 10:35:04;;;;;;;5.90;3.10;;;;;;;16.23;29.37;93577.42;1844064;77;21130;-76
2021/04/11 10:37:52;;;;;;;5.08;3.20;;;;;;;16.22;29.36;93579.23;1842560;76;21171;-76
2021/04/11 10:40:27;;;;;;;4.62;3.02;;;;;;;16.24;29.02;93577.58;1880376;76;21447;-76
2021/04/11 10:43:28;;;;;;;6.70;4.58;;;;;;;16.27;29.08;93575.36;1849174;77;21147;-75
2021/04/11 10:46:02;;;;;;;7.15;5.05;;;;;;;16.31;29.30;93573.14;1847130;77;21064;-76
2021/04/11 10:49:17;;;;;;;8.93;4.08;;;;;;;16.36;28.61;93566.56;1880080;76;21052;-77
2021/04/11 10:52:11;;;;;;;6.15;3.50;;;;;;;16.40;29.25;93567.24;1875416;75;21519;-76
2021/04/11 10:54:46;;;;;;;;;;;;;;;16.45;28.85;93560.46;1864275;75;20918;-76
2021/04/11 10:57:40;;;;;;;3.62;2.90;;;;;;;16.48;28.14;93555.49;1821367;77;21559;-78
2021/04/11 11:00:27;;;;;;;5.17;2.80;;;;;;;16.48;28.43;93556.86;1785610;78;21490;-77
2021/04/11 11:03:35;;;;;;;4.37;2.60;;;;;;;16.59;28.65;93554.63;1813241;78;21451;-76
2021/04/11 11:06:43;;;;;;;3.70;3.10;;;;;;;16.61;28.15;93547.33;1812692;78;21169;-78
2021/04/11 11:09:47;;;;;;;4.75;3.22;;;;;;;16.60;28.49;93550.67;1812781;78;21065;-77
2021/04/11 11:12:43;;;;;;;3.92;3.02;;;;;;;16.60;28.29;93545.79;1814111;77;21335;-77
2021/04/11 11:15:36;;;;;;;4.28;3.10;;;;;;;16.64;28.45;93549.22;1763138;77;21096;-77
2021/04/11 11:18:33;;;;;;;10.35;2.77;;;;;;;16.65;28.27;93540.54;1774787;77;21568;-77
2021/04/11 11:21:24;;;;;;;5.37;2.75;;;;;;;16.68;28.08;93536.94;1852423;77;21476;-78
2021/04/11 11:24:20;;;;;;;3.85;3.15;;;;;;;16.77;28.68;93534.97;1810411;77;21047;-75
2021/04/11 11:27:39;;;;;;;5.37;2.83;;;;;;;16.89;28.99;93535.66;1840140;77;21636;-75
2021/04/11 11:30:24;;;;;;;3.92;3.05;;;;;;;16.94;27.93;93524.73;1826133;78;21118;-75
2021/04/11 11:33:19;;;;;;;3.43;2.57;;;;;;;16.97;27.99;93533.49;1784064;79;21579;-75
2021/04/11 11:35:58;;;;;;;3.25;2.52;;;;;;;17.02;28.23;93526.09;1800269;78;21361;-79
2021/04/11 11:38:35;;;;;;;5.35;2.80;;;;;;;17.09;28.28;93519.03;1784748;79;21105;-76
2021/04/11 11:41:36;;;;;;;4.67;2.80;;;;;;;17.14;26.16;93512.23;1808166;78;21769;-77
2021/04/11 11:44:12;;;;;;;4.22;2.65;;;;;;;17.14;26.23;93510.25;1838361;77;21114;-77
2021/04/11 11:46:51;;;;;;;5.22;3.02;;;;;;;17.21;25.36;93514.78;1838625;77;21118;-77
2021/04/11 11:49:49;;;;;;;4.92;2.58;;;;;;;17.13;25.24;93509.32;1802739;79;21099;-77
2021/04/11 11:52:43;;;;;;;2.70;2.50;;;;;;;17.09;27.33;93510.02;1880466;76;21142;-75
2021/04/11 11:55:18;;;;;;;2.98;2.30;;;;;;;17.15;26.86;93495.91;1834852;76;21604;-76
2021/04/11 11:58:15;;;;;;;3.55;2.80;;;;;;;17.19;27.32;93489.73;1821901;77;21162;-77
2021/04/11 12:00:45;;;;;;;6.15;2.55;;;;;;;17.24;27.47;93491.94;1858375;76;21055;-76
2021/04/11 12:03:34;;;;;;;4.70;3.70;;;;;;;17.26;27.16;93483.25;1861840;76;21142;-76
2021/04/11 12:06:19;;;;;;;4.75;3.80;;;;;;;17.30;27.79;93481.16;1858780;77;21018;-77
2021/04/11 12:09:03;;;;;;;3.62;3.20;;;;;;;17.32;27.45;93480.91;1848483;76;21796;-76
2021/04/11 12:12:12;;;;;;;3.67;2.72;;;;;;;17.33;27.01;93478.92;1875875;75;21555;-77
2021/04/11 12:14:59;;;;;;;3.52;2.98;;;;;;;17.30;26.56;93476.47;1865250;76;21153;-76
2021/04/11 12:18:00;;;;;;;5.90;2.85;;;;;;;17.28;25.89;93473.37;1850759;77;21727;-77
2021/04/11 12:20:40;;;;;;;4.47;2.67;;;;;;;17.36;27.61;93473.93;1843922;77;21154;-77
2021/04/11 12:23:26;;;;;;;4.55;2.70;;;;;;;17.48;27.14;93471.20;1834002;77;21795;-77
2021/04/11 12:26:03;;;;;;;3.90;2.52;;;;;;;17.52;27.05;93464.22;1820553;78;21206;-77
2021/04/11 12:28:31;;;;;;;5.15;2.75;;;;;;;17.52;26.79;93460.70;1808520;78;21558;-77
2021/04/11 12:30:58;;;;;;;4.15;2.95;;;;;;;17.54;26.82;93450.05;1881974;75;21120;-77
2021/04/11 12:33:37;;;;;;;4.45;4.05;;;;;;;17.52;25.44;93449.09;1907055;74;21600;-78
2021/04/11 12:36:14;;;;;;;6.85;3.87;;;;;;;17.52;26.61;93450.47;1857101;77;21559;-77
2021/04/11 12:38:52;;;;;;;9.50;3.85;;;;;;;17.60;27.20;93447.70;1855411;77;21130;-77
2021/04/11 12:41:27;;;;;;;5.08;2.85;;;;;;;17.61;27.07;93442.97;1824715;77;21038;-77
2021/04/11 12:44:11;;;;;;;3.40;3.10;;;;;;;17.60;27.16;93438.66;1827474;77;21135;-76
2021/04/11 12:47:11;;;;;;;4.55;2.80;;;;;;;17.65;27.18;93439.50;1823505;78;21502;-77